createdAt,value
2023-04-02T00:02:52.135Z,6.50
2023-04-02T00:05:26.337Z,6.60
2023-04-02T00:07:58.176Z,6.50
2023-04-02T00:10:40.613Z,6.60
2023-04-02T00:13:10.660Z,6.50
2023-04-02T00:15:45.617Z,6.40
2023-04-02T00:18:19.006Z,6.50
2023-04-02T00:21:22.952Z,6.50
2023-04-02T00:23:50.808Z,6.50
2023-04-02T00:26:38.067Z,6.50
2023-04-02T00:29:06.786Z,6.40
2023-04-02T00:31:35.293Z,6.40
2023-04-02T00:34:07.578Z,6.30
2023-04-02T00:36:35.618Z,6.30
2023-04-02T00:39:05.238Z,6.30
2023-04-02T00:41:36.308Z,6.30
2023-04-02T00:44:03.915Z,6.20
2023-04-02T00:46:47.384Z,6.20
2023-04-02T00:49:38.812Z,6.10
2023-04-02T00:52:11.032Z,6.20
2023-04-02T00:54:50.420Z,6.00
2023-04-02T00:57:25.937Z,6.00
2023-04-02T00:59:58.161Z,6.00
2023-04-02T01:02:31.205Z,6.00
2023-04-02T01:05:01.097Z,6.00
2023-04-02T01:08:00.450Z,6.00
2023-04-02T01:10:34.089Z,6.00
2023-04-02T01:13:34.164Z,6.00
2023-04-02T01:16:05.241Z,5.90
2023-04-02T01:18:38.221Z,6.00
2023-04-02T01:21:11.868Z,6.00
2023-04-02T01:23:52.930Z,6.00
2023-04-02T01:26:26.139Z,6.00
2023-04-02T01:29:03.974Z,6.00
2023-04-02T01:31:31.250Z,5.90
2023-04-02T01:33:58.369Z,5.90
2023-04-02T01:36:57.670Z,5.80
2023-04-02T01:39:42.926Z,5.80
2023-04-02T01:42:33.701Z,5.90
2023-04-02T01:45:08.909Z,5.90
2023-04-02T01:47:36.082Z,5.90
2023-04-02T01:50:31.947Z,5.80
2023-04-02T01:53:02.731Z,5.80
2023-04-02T01:55:38.560Z,5.70
2023-04-02T01:58:06.009Z,5.70
2023-04-02T02:00:35.489Z,5.70
2023-04-02T02:03:03.336Z,5.60
2023-04-02T02:05:30.630Z,5.70
2023-04-02T02:07:58.652Z,5.60
2023-04-02T02:10:36.326Z,5.50
2023-04-02T02:13:03.930Z,5.50
2023-04-02T02:15:33.375Z,5.50
2023-04-02T02:18:05.706Z,5.50
2023-04-02T02:20:32.847Z,5.50
2023-04-02T02:23:01.135Z,5.40
2023-04-02T02:25:33.274Z,5.40
2023-04-02T02:28:17.810Z,5.40
2023-04-02T02:31:09.734Z,5.40
2023-04-02T02:33:39.495Z,5.40
2023-04-02T02:36:10.511Z,5.40
2023-04-02T02:38:41.628Z,5.40
2023-04-02T02:41:24.823Z,5.40
2023-04-02T02:44:22.109Z,5.40
2023-04-02T02:46:54.803Z,5.30
2023-04-02T02:49:26.736Z,5.20
2023-04-02T02:51:59.352Z,5.20
2023-04-02T02:54:26.485Z,5.20
2023-04-02T02:57:00.146Z,5.20
2023-04-02T02:59:27.177Z,5.20
2023-04-02T03:01:54.181Z,5.10
2023-04-02T03:04:24.554Z,5.10
2023-04-02T03:06:53.021Z,5.10
2023-04-02T03:09:35.567Z,5.20
2023-04-02T03:12:28.752Z,5.10
2023-04-02T03:15:17.385Z,5.00
2023-04-02T03:18:38.041Z,5.00
2023-04-02T03:21:22.338Z,4.90
2023-04-02T03:23:56.799Z,4.80
2023-04-02T03:26:34.945Z,4.80
2023-04-02T03:29:12.837Z,4.70
2023-04-02T03:31:46.999Z,4.70
2023-04-02T03:34:25.785Z,4.60
2023-04-02T03:37:24.181Z,4.50
2023-04-02T03:39:55.103Z,4.50
2023-04-02T03:42:26.836Z,4.30
2023-04-02T03:45:06.342Z,4.30
2023-04-02T05:03:03.660Z,3.10
2023-04-02T05:05:34.234Z,3.10
2023-04-02T05:08:14.143Z,3.10
2023-04-02T05:10:48.585Z,3.10
2023-04-02T05:13:54.778Z,3.10
2023-04-02T05:16:33.881Z,3.00
2023-04-02T05:19:28.938Z,3.10
2023-04-02T05:22:04.650Z,3.00
2023-04-02T05:25:15.708Z,3.10
2023-04-02T05:28:15.551Z,3.10
2023-04-02T05:30:54.750Z,3.10
2023-04-02T05:33:30.537Z,3.00
2023-04-02T05:36:04.545Z,3.10
2023-04-02T05:38:36.948Z,3.10
2023-04-02T05:41:32.723Z,3.10
2023-04-02T05:44:24.756Z,3.10
2023-04-02T05:49:43.256Z,3.10
2023-04-02T05:52:18.023Z,3.00
2023-04-02T05:54:51.238Z,3.00
2023-04-02T05:57:43.838Z,3.10
2023-04-02T06:00:38.972Z,3.10
2023-04-02T06:03:30.256Z,3.20
2023-04-02T06:06:03.780Z,3.10
2023-04-02T06:08:39.883Z,3.10
2023-04-02T06:11:22.890Z,3.20
2023-04-02T06:13:50.339Z,3.20
2023-04-02T06:16:25.979Z,3.10
2023-04-02T06:18:53.163Z,3.20
2023-04-02T06:21:22.486Z,3.10
2023-04-02T06:24:00.671Z,3.20
2023-04-02T06:26:35.601Z,3.20
2023-04-02T06:29:18.108Z,3.10
2023-04-02T06:31:59.047Z,3.10
2023-04-02T06:34:28.365Z,3.00
2023-04-02T06:37:18.545Z,2.90
2023-04-02T06:39:45.796Z,2.90
2023-04-02T06:42:22.631Z,2.90
2023-04-02T06:44:50.319Z,3.10
2023-04-02T06:47:44.535Z,3.20
2023-04-02T06:50:23.493Z,3.20
2023-04-02T06:53:05.360Z,3.30
2023-04-02T06:55:52.082Z,3.30
2023-04-02T06:58:20.815Z,3.30
2023-04-02T07:00:49.703Z,3.30
2023-04-02T07:03:27.734Z,3.30
2023-04-02T07:05:55.168Z,3.30
2023-04-02T07:08:22.867Z,3.40
2023-04-02T07:10:50.198Z,3.40
2023-04-02T07:13:22.091Z,3.50
2023-04-02T07:15:52.669Z,3.40
2023-04-02T07:18:34.206Z,3.40
2023-04-02T07:21:01.557Z,3.40
2023-04-02T07:23:28.643Z,3.70
2023-04-02T07:25:57.254Z,4.00
2023-04-02T07:28:25.102Z,3.90
2023-04-02T07:30:53.657Z,3.90
2023-04-02T07:33:27.530Z,3.60
2023-04-02T07:35:56.241Z,3.60
2023-04-02T07:38:24.090Z,3.50
2023-04-02T07:40:54.585Z,3.50
2023-04-02T07:43:23.284Z,3.90
2023-04-02T07:45:51.946Z,4.30
2023-04-02T07:48:19.096Z,4.20
2023-04-02T07:50:46.249Z,4.20
2023-04-02T07:53:38.870Z,4.30
2023-04-02T07:56:07.429Z,4.30
2023-04-02T07:58:34.542Z,4.50
2023-04-02T08:01:03.865Z,5.00
2023-04-02T08:03:31.528Z,5.30
2023-04-02T08:05:59.027Z,5.70
2023-04-02T08:08:26.706Z,5.70
2023-04-02T08:10:55.612Z,5.90
2023-04-02T08:13:22.790Z,6.00
2023-04-02T08:15:49.983Z,5.90
2023-04-02T08:18:17.194Z,6.00
2023-04-02T08:20:44.325Z,6.20
2023-04-02T08:23:17.242Z,6.40
2023-04-02T08:25:45.830Z,6.50
2023-04-02T08:28:13.057Z,6.10
2023-04-02T08:30:40.257Z,5.70
2023-04-02T08:33:07.428Z,5.20
2023-04-02T08:35:35.000Z,5.50
2023-04-02T08:38:02.352Z,5.90
2023-04-02T08:40:39.289Z,6.20
2023-04-02T08:43:25.135Z,6.30
2023-04-02T08:45:56.362Z,6.40
2023-04-02T08:48:24.475Z,6.20
2023-04-02T08:50:51.644Z,6.50
2023-04-02T08:53:38.124Z,6.60
2023-04-02T08:56:10.186Z,6.80
2023-04-02T08:58:57.751Z,6.80
2023-04-02T09:01:35.118Z,6.90
2023-04-02T09:04:06.296Z,7.20
2023-04-02T09:06:34.833Z,7.00
2023-04-02T09:09:02.068Z,7.30
2023-04-02T09:12:03.086Z,6.80
2023-04-02T09:15:02.150Z,7.10
2023-04-02T09:17:32.826Z,7.20
2023-04-02T09:20:26.555Z,7.10
2023-04-02T09:22:54.721Z,7.20
2023-04-02T09:25:28.331Z,7.50
2023-04-02T09:27:57.603Z,7.40
2023-04-02T09:30:46.188Z,7.30
2023-04-02T09:33:13.490Z,7.10
2023-04-02T09:35:49.852Z,7.00
2023-04-02T09:38:33.165Z,7.30
2023-04-02T09:41:07.697Z,7.40
2023-04-02T09:43:38.255Z,7.60
2023-04-02T09:46:39.163Z,7.90
2023-04-02T09:49:06.362Z,7.70
2023-04-02T09:51:35.369Z,7.80
2023-04-02T09:54:12.832Z,7.80
2023-04-02T09:56:41.248Z,7.40
2023-04-02T09:59:14.127Z,7.30
2023-04-02T10:01:43.780Z,7.60
2023-04-02T10:04:48.276Z,7.70
2023-04-02T10:07:38.184Z,7.90
2023-04-02T10:10:44.985Z,7.90
2023-04-02T10:13:21.078Z,7.90
2023-04-02T10:16:10.924Z,7.70
2023-04-02T10:18:58.734Z,7.70
2023-04-02T10:21:37.804Z,7.60
2023-04-02T10:24:16.824Z,7.70
2023-04-02T10:27:04.957Z,7.80
2023-04-02T10:30:05.313Z,8.00
2023-04-02T10:33:08.166Z,8.10
2023-04-02T10:35:59.856Z,8.10
2023-04-02T10:38:48.804Z,8.10
2023-04-02T10:42:04.610Z,8.10
2023-04-02T10:45:02.856Z,8.20
2023-04-02T10:47:48.758Z,8.20
2023-04-02T10:50:34.243Z,8.40
2023-04-02T10:53:21.545Z,8.30
2023-04-02T10:56:05.856Z,8.20
2023-04-02T10:58:38.314Z,8.50
2023-04-02T11:01:16.758Z,8.60
2023-04-02T11:03:57.891Z,8.70
2023-04-02T11:06:39.543Z,8.70
2023-04-02T11:09:11.311Z,8.90
2023-04-02T11:11:43.276Z,8.80
2023-04-02T11:14:24.496Z,8.70
2023-04-02T11:16:53.749Z,8.70
2023-04-02T11:19:23.868Z,8.90
2023-04-02T11:22:05.204Z,9.10
2023-04-02T11:24:44.170Z,9.10
2023-04-02T11:27:41.402Z,9.20
2023-04-02T11:30:24.532Z,9.20
2023-04-02T11:32:52.071Z,9.10
2023-04-02T11:35:31.465Z,9.00
2023-04-02T11:38:23.539Z,9.10
2023-04-02T11:40:55.248Z,9.20
2023-04-02T11:43:34.678Z,9.20
2023-04-02T11:46:30.855Z,9.30
2023-04-02T11:49:36.640Z,9.40
2023-04-02T11:52:11.863Z,9.60
2023-04-02T11:54:40.056Z,9.70
2023-04-02T11:57:56.386Z,9.60
2023-04-02T12:00:49.609Z,9.70
2023-04-02T12:03:54.051Z,9.80
2023-04-02T12:07:10.893Z,9.60
2023-04-02T12:09:52.014Z,9.90
2023-04-02T12:12:34.031Z,9.90
2023-04-02T12:15:01.304Z,10.00
2023-04-02T12:17:40.083Z,10.00
2023-04-02T12:20:09.815Z,10.10
2023-04-02T12:22:48.251Z,10.00
2023-04-02T12:25:21.873Z,10.00
2023-04-02T12:27:49.381Z,10.00
2023-04-02T12:30:22.000Z,9.90
2023-04-02T12:32:49.620Z,9.90
2023-04-02T12:35:26.449Z,10.10
2023-04-02T12:37:53.793Z,10.10
2023-04-02T12:40:21.186Z,10.10
2023-04-02T12:42:48.453Z,10.30
2023-04-02T12:45:33.438Z,10.20
2023-04-02T12:48:04.625Z,10.20
2023-04-02T12:50:32.857Z,10.20
2023-04-02T12:53:01.176Z,10.60
2023-04-02T12:55:28.408Z,10.30
2023-04-02T12:57:57.856Z,10.40
2023-04-02T13:00:25.210Z,10.60
2023-04-02T13:03:24.028Z,10.80
2023-04-02T13:05:57.172Z,10.80
2023-04-02T13:08:31.496Z,10.90
2023-04-02T13:11:01.405Z,10.90
2023-04-02T13:13:36.727Z,10.80
2023-04-02T13:16:10.083Z,10.80
2023-04-02T13:18:38.622Z,10.90
2023-04-02T13:21:19.651Z,11.10
2023-04-02T13:23:47.189Z,10.90
2023-04-02T13:26:27.331Z,10.80
2023-04-02T13:29:02.862Z,10.80
2023-04-02T13:31:32.772Z,10.70
2023-04-02T13:33:59.964Z,10.80
2023-04-02T13:36:29.537Z,10.90
2023-04-02T13:38:57.284Z,11.10
2023-04-02T13:41:30.757Z,11.10
2023-04-02T13:44:04.474Z,10.90
2023-04-02T13:46:34.058Z,11.00
2023-04-02T13:49:01.687Z,11.00
2023-04-02T13:51:39.640Z,11.10
2023-04-02T13:54:20.147Z,11.30
2023-04-02T13:56:47.638Z,11.20
2023-04-02T13:59:14.950Z,11.00
2023-04-02T14:01:43.930Z,11.00
2023-04-02T14:04:13.824Z,11.10
2023-04-02T14:07:20.660Z,11.20
2023-04-02T14:10:17.603Z,11.10
2023-04-02T14:13:20.928Z,11.00
2023-04-02T14:15:56.810Z,10.90
2023-04-02T14:18:51.821Z,11.10
2023-04-02T14:21:42.403Z,11.30
2023-04-02T14:24:21.851Z,11.50
2023-04-02T14:27:29.644Z,11.40
2023-04-02T14:30:15.614Z,11.30
2023-04-02T14:33:13.732Z,11.00
2023-04-02T14:35:47.978Z,11.10
2023-04-02T14:38:47.947Z,10.90
2023-04-02T14:41:34.228Z,10.70
2023-04-02T14:44:04.718Z,11.10
2023-04-02T14:46:36.862Z,11.20
2023-04-02T14:49:26.014Z,11.20
2023-04-02T14:52:14.336Z,11.10
2023-04-02T14:55:05.465Z,11.00
2023-04-02T14:57:37.226Z,11.00
2023-04-02T15:00:46.002Z,11.00
2023-04-02T15:03:25.342Z,11.10
2023-04-02T15:06:00.803Z,10.90
2023-04-02T15:08:41.077Z,10.90
2023-04-02T15:11:17.912Z,10.80
2023-04-02T15:14:04.049Z,10.90
2023-04-02T15:16:33.434Z,10.90
2023-04-02T15:19:03.033Z,11.10
2023-04-02T15:21:55.884Z,11.10
2023-04-02T15:24:48.486Z,10.90
2023-04-02T15:27:25.200Z,11.00
2023-04-02T15:30:26.982Z,10.90
2023-04-02T15:32:59.078Z,10.90
2023-04-02T15:35:45.206Z,10.80
2023-04-02T15:38:56.047Z,10.90
2023-04-02T15:41:42.808Z,10.80
2023-04-02T15:44:15.816Z,10.80
2023-04-02T15:47:01.808Z,10.80
2023-04-02T15:49:40.536Z,10.70
2023-04-02T15:52:16.574Z,10.70
2023-04-02T15:55:09.914Z,10.80
2023-04-02T15:58:25.059Z,10.70
2023-04-02T16:01:03.988Z,10.80
2023-04-02T16:03:41.837Z,10.50
2023-04-02T16:06:21.895Z,10.40
2023-04-02T16:09:23.469Z,10.30
2023-04-02T16:12:12.630Z,10.30
2023-04-02T16:14:41.082Z,10.30
2023-04-02T16:17:24.826Z,10.30
2023-04-02T16:20:22.589Z,10.40
2023-04-02T16:23:01.554Z,10.40
2023-04-02T16:25:36.478Z,10.40
2023-04-02T16:28:22.115Z,10.40
2023-04-02T16:31:09.395Z,10.20
2023-04-02T16:34:19.708Z,10.10
2023-04-02T16:37:11.950Z,10.10
2023-04-02T16:40:03.200Z,10.10
2023-04-02T16:42:48.005Z,10.10
2023-04-02T16:45:31.361Z,10.10
2023-04-02T16:48:57.842Z,10.00
2023-04-02T16:52:19.650Z,10.00
2023-04-02T16:55:34.283Z,10.10
2023-04-02T16:58:23.450Z,9.90
2023-04-02T17:01:01.190Z,9.90
2023-04-02T17:04:04.312Z,9.70
2023-04-02T17:07:15.302Z,9.80
2023-04-02T17:10:19.665Z,9.70
2023-04-02T17:12:51.541Z,9.60
2023-04-02T17:15:28.624Z,9.60
2023-04-02T17:18:01.299Z,9.60
2023-04-02T17:20:29.286Z,9.50
2023-04-02T17:22:57.016Z,9.40
2023-04-02T17:25:29.026Z,9.40
2023-04-02T17:27:57.066Z,9.40
2023-04-02T17:30:42.503Z,9.30
2023-04-02T17:33:15.567Z,9.30
2023-04-02T17:36:11.132Z,9.20
2023-04-02T17:39:03.842Z,9.10
2023-04-02T17:42:07.645Z,9.10
2023-04-02T17:44:54.810Z,9.10
2023-04-02T17:47:47.971Z,9.00
2023-04-02T17:50:39.360Z,9.00
2023-04-02T17:53:34.431Z,8.90
2023-04-02T17:56:53.061Z,8.80
2023-04-02T18:00:01.012Z,8.80
2023-04-02T18:02:59.938Z,8.80
2023-04-02T18:05:51.870Z,8.70
2023-04-02T18:08:46.873Z,8.60
2023-04-02T18:11:35.493Z,8.60
2023-04-02T18:14:46.558Z,8.60
2023-04-02T18:17:48.845Z,8.40
2023-04-02T18:20:37.284Z,8.40
2023-04-02T18:23:38.564Z,8.30
2023-04-02T18:26:22.487Z,8.30
2023-04-02T18:29:23.858Z,8.30
2023-04-02T18:32:16.658Z,8.20
2023-04-02T18:35:29.799Z,8.10
2023-04-02T18:38:21.223Z,8.00
2023-04-02T18:41:20.052Z,8.00
2023-04-02T18:44:16.067Z,7.90
2023-04-02T18:47:09.203Z,7.90
2023-04-02T18:49:40.252Z,7.80
2023-04-02T18:52:16.977Z,7.80
2023-04-02T18:54:57.259Z,7.70
2023-04-02T18:57:34.043Z,7.80
2023-04-02T19:00:05.021Z,7.60
2023-04-02T19:02:52.683Z,7.70
2023-04-02T19:05:40.659Z,7.70
2023-04-02T19:08:24.890Z,7.60
2023-04-02T19:10:58.242Z,7.60
2023-04-02T19:13:25.426Z,7.60
2023-04-02T19:16:23.628Z,7.50
2023-04-02T19:19:17.234Z,7.50
2023-04-02T19:22:01.948Z,7.50
2023-04-02T19:25:01.733Z,7.40
2023-04-02T19:27:48.095Z,7.40
2023-04-02T19:31:18.403Z,7.20
2023-04-02T19:34:22.294Z,7.20
2023-04-02T19:37:17.013Z,7.20
2023-04-02T19:40:11.850Z,7.10
2023-04-02T19:42:50.807Z,7.10
2023-04-02T19:45:32.885Z,7.10
2023-04-02T19:48:06.439Z,7.10
2023-04-02T19:50:33.649Z,6.90
2023-04-02T19:53:00.764Z,6.90
2023-04-02T19:55:27.898Z,7.00
2023-04-02T19:58:04.516Z,7.10
2023-04-02T20:00:42.123Z,7.00
2023-04-02T20:03:09.216Z,7.00
2023-04-02T20:05:36.432Z,6.90
2023-04-02T20:08:03.874Z,6.90
2023-04-02T20:10:31.045Z,6.80
2023-04-02T20:12:58.164Z,6.80
2023-04-02T20:15:25.420Z,6.70
2023-04-02T20:17:52.646Z,6.70
2023-04-02T20:20:19.890Z,6.70
2023-04-02T20:22:48.560Z,6.60
2023-04-02T20:25:16.562Z,6.60
2023-04-02T20:27:43.662Z,6.50
2023-04-02T20:30:11.625Z,6.50
2023-04-02T20:32:38.958Z,6.40
2023-04-02T20:35:06.679Z,6.30
2023-04-02T20:37:34.885Z,6.40
2023-04-02T20:40:02.167Z,6.30
2023-04-02T20:42:29.521Z,6.30
2023-04-02T20:44:56.687Z,6.30
2023-04-02T20:47:23.797Z,6.20
2023-04-02T20:49:51.548Z,6.30
2023-04-02T20:52:18.640Z,6.10
2023-04-02T20:54:45.754Z,6.10
2023-04-02T20:57:13.972Z,6.10
2023-04-02T20:59:41.148Z,6.30
2023-04-02T21:02:10.221Z,6.10
2023-04-02T21:04:37.384Z,6.10
2023-04-02T21:07:04.572Z,6.10
2023-04-02T21:09:32.246Z,6.20
2023-04-02T21:11:59.399Z,6.10
2023-04-02T21:14:26.824Z,6.00
2023-04-02T21:16:53.906Z,5.90
2023-04-02T21:19:21.496Z,6.00
2023-04-02T21:21:48.695Z,5.90
2023-04-02T21:24:15.731Z,5.90
2023-04-02T21:26:42.825Z,5.70
2023-04-02T21:29:11.443Z,5.90
2023-04-02T21:31:39.683Z,5.80
2023-04-02T21:34:07.645Z,5.80
2023-04-02T21:36:37.023Z,5.90
2023-04-02T21:39:09.567Z,5.80
2023-04-02T21:41:38.649Z,5.70
2023-04-02T21:44:08.469Z,5.50
2023-04-02T21:46:38.776Z,5.60
2023-04-02T21:49:08.195Z,5.60
2023-04-02T21:51:37.560Z,5.60
2023-04-02T21:54:04.979Z,5.50
2023-04-02T21:56:34.668Z,5.50
2023-04-02T21:59:02.329Z,5.60
2023-04-02T22:01:31.327Z,5.50
2023-04-02T22:04:00.723Z,5.60
2023-04-02T22:06:29.706Z,5.50
2023-04-02T22:08:58.722Z,5.50
2023-04-02T22:11:28.670Z,5.50
2023-04-02T22:13:55.848Z,5.40
2023-04-02T22:16:25.269Z,5.50
2023-04-02T22:18:53.592Z,5.40
2023-04-02T22:21:21.062Z,5.40
2023-04-02T22:23:49.007Z,5.30
2023-04-02T22:26:17.072Z,5.20
2023-04-02T22:28:44.111Z,5.20
2023-04-02T22:31:19.658Z,5.30
2023-04-02T22:33:47.011Z,5.30
2023-04-02T22:36:14.300Z,5.30
2023-04-02T22:38:41.393Z,5.20
2023-04-02T22:41:27.618Z,5.20
2023-04-02T22:43:58.616Z,5.20
2023-04-02T22:46:26.901Z,5.10
2023-04-02T22:48:54.702Z,5.00
2023-04-02T22:51:23.748Z,4.90
2023-04-02T22:53:53.275Z,4.90
2023-04-02T22:56:27.731Z,4.80
2023-04-02T22:58:54.886Z,4.70
2023-04-02T23:01:29.826Z,4.80
2023-04-02T23:03:56.919Z,4.80
2023-04-02T23:06:24.409Z,4.80
2023-04-02T23:08:51.663Z,4.80
2023-04-02T23:11:22.157Z,4.80
2023-04-02T23:13:51.017Z,4.80
2023-04-02T23:16:18.405Z,4.70
2023-04-02T23:18:48.768Z,4.70
2023-04-02T23:21:16.922Z,4.60
2023-04-02T23:23:43.917Z,4.60
2023-04-02T23:26:22.515Z,4.50
2023-04-02T23:28:51.586Z,4.50
2023-04-02T23:31:22.346Z,4.50
2023-04-02T23:33:51.554Z,4.40
2023-04-02T23:36:28.775Z,4.50
2023-04-02T23:39:11.039Z,4.40
2023-04-02T23:41:40.651Z,4.40
2023-04-02T23:44:08.252Z,4.40
2023-04-02T23:46:36.601Z,4.40
2023-04-02T23:49:04.690Z,4.40
2023-04-02T23:51:32.510Z,4.30
2023-04-02T23:53:59.791Z,4.30
2023-04-02T23:56:27.310Z,4.30
2023-04-02T23:58:54.556Z,4.30
